sensor_id;sensor_type;location;lat;lon;timestamp;temperature;humidity
52675;DHT22;38569;52.722;6.440;2022-09-09T00:01:57;13.70;99.90
52675;DHT22;38569;52.722;6.440;2022-09-09T00:04:03;13.60;99.90
52675;DHT22;38569;52.722;6.440;2022-09-09T00:06:55;13.60;99.90
52675;DHT22;38569;52.722;6.440;2022-09-09T00:09:27;13.60;99.90
52675;DHT22;38569;52.722;6.440;2022-09-09T00:15:02;13.50;99.90
52675;DHT22;38569;52.722;6.440;2022-09-09T00:17:51;13.40;99.90
52675;DHT22;38569;52.722;6.440;2022-09-09T00:20:43;13.40;99.90
52675;DHT22;38569;52.722;6.440;2022-09-09T00:23:28;13.50;99.90
52675;DHT22;38569;52.722;6.440;2022-09-09T00:31:26;13.80;99.90
52675;DHT22;38569;52.722;6.440;2022-09-09T00:33:53;13.80;99.90
52675;DHT22;38569;52.722;6.440;2022-09-09T00:36:24;13.80;99.90
52675;DHT22;38569;52.722;6.440;2022-09-09T00:38:59;13.90;99.90
52675;DHT22;38569;52.722;6.440;2022-09-09T00:41:39;13.90;99.90
52675;DHT22;38569;52.722;6.440;2022-09-09T00:47:04;14.10;99.90
52675;DHT22;38569;52.722;6.440;2022-09-09T00:52:47;14.30;99.90
52675;DHT22;38569;52.722;6.440;2022-09-09T00:57:52;14.40;99.90
52675;DHT22;38569;52.722;6.440;2022-09-09T01:00:25;14.50;99.90
52675;DHT22;38569;52.722;6.440;2022-09-09T01:03:13;14.50;99.90
52675;DHT22;38569;52.722;6.440;2022-09-09T01:08:28;14.60;99.90
52675;DHT22;38569;52.722;6.440;2022-09-09T01:10:59;14.70;99.90
52675;DHT22;38569;52.722;6.440;2022-09-09T01:13:31;14.70;99.90
52675;DHT22;38569;52.722;6.440;2022-09-09T01:15:59;14.70;99.90
52675;DHT22;38569;52.722;6.440;2022-09-09T01:18:31;14.80;99.90
52675;DHT22;38569;52.722;6.440;2022-09-09T01:21:19;14.90;99.90
52675;DHT22;38569;52.722;6.440;2022-09-09T01:26:41;14.80;99.90
52675;DHT22;38569;52.722;6.440;2022-09-09T01:29:16;14.80;99.90
52675;DHT22;38569;52.722;6.440;2022-09-09T01:34:40;14.80;99.90
52675;DHT22;38569;52.722;6.440;2022-09-09T01:37:11;14.70;99.90
52675;DHT22;38569;52.722;6.440;2022-09-09T01:39:40;14.80;99.90
52675;DHT22;38569;52.722;6.440;2022-09-09T01:42:09;14.80;99.90
52675;DHT22;38569;52.722;6.440;2022-09-09T01:44:37;14.80;99.90
52675;DHT22;38569;52.722;6.440;2022-09-09T01:47:03;14.80;99.90
52675;DHT22;38569;52.722;6.440;2022-09-09T01:49:29;14.80;99.90
52675;DHT22;38569;52.722;6.440;2022-09-09T01:51:56;14.80;99.90
52675;DHT22;38569;52.722;6.440;2022-09-09T01:54:26;14.70;99.90
52675;DHT22;38569;52.722;6.440;2022-09-09T02:05:11;14.80;99.90
52675;DHT22;38569;52.722;6.440;2022-09-09T02:07:48;14.80;99.90
52675;DHT22;38569;52.722;6.440;2022-09-09T02:10:24;14.90;99.90
52675;DHT22;38569;52.722;6.440;2022-09-09T02:12:55;14.80;99.90
52675;DHT22;38569;52.722;6.440;2022-09-09T02:15:29;14.80;99.90
52675;DHT22;38569;52.722;6.440;2022-09-09T02:17:57;14.80;99.90
52675;DHT22;38569;52.722;6.440;2022-09-09T02:20:24;14.80;99.90
52675;DHT22;38569;52.722;6.440;2022-09-09T02:22:53;14.80;99.90
52675;DHT22;38569;52.722;6.440;2022-09-09T02:25:22;14.80;99.90
52675;DHT22;38569;52.722;6.440;2022-09-09T02:27:50;14.90;99.90
52675;DHT22;38569;52.722;6.440;2022-09-09T02:30:18;14.90;99.90
52675;DHT22;38569;52.722;6.440;2022-09-09T02:32:46;14.90;99.90
52675;DHT22;38569;52.722;6.440;2022-09-09T02:35:17;14.90;99.90
52675;DHT22;38569;52.722;6.440;2022-09-09T02:37:45;14.90;99.90
52675;DHT22;38569;52.722;6.440;2022-09-09T02:40:14;14.90;99.90
52675;DHT22;38569;52.722;6.440;2022-09-09T02:42:44;15.00;99.90
52675;DHT22;38569;52.722;6.440;2022-09-09T02:45:12;15.00;99.90
52675;DHT22;38569;52.722;6.440;2022-09-09T02:50:35;14.90;99.90
52675;DHT22;38569;52.722;6.440;2022-09-09T02:55:38;14.90;99.90
52675;DHT22;38569;52.722;6.440;2022-09-09T02:58:07;14.80;99.90
52675;DHT22;38569;52.722;6.440;2022-09-09T03:00:34;14.80;99.90
52675;DHT22;38569;52.722;6.440;2022-09-09T03:03:05;14.80;99.90
52675;DHT22;38569;52.722;6.440;2022-09-09T03:05:31;14.80;99.90
52675;DHT22;38569;52.722;6.440;2022-09-09T03:07:58;14.70;99.90
52675;DHT22;38569;52.722;6.440;2022-09-09T03:10:24;14.70;99.90
52675;DHT22;38569;52.722;6.440;2022-09-09T03:12:49;14.70;99.90
52675;DHT22;38569;52.722;6.440;2022-09-09T03:15:16;14.70;99.90
52675;DHT22;38569;52.722;6.440;2022-09-09T03:17:42;14.60;99.90
52675;DHT22;38569;52.722;6.440;2022-09-09T03:20:07;14.70;99.90
52675;DHT22;38569;52.722;6.440;2022-09-09T03:22:34;14.60;99.90
52675;DHT22;38569;52.722;6.440;2022-09-09T03:25:00;14.60;99.90
52675;DHT22;38569;52.722;6.440;2022-09-09T03:27:28;14.60;99.90
52675;DHT22;38569;52.722;6.440;2022-09-09T03:29:54;14.50;99.90
52675;DHT22;38569;52.722;6.440;2022-09-09T03:32:21;14.50;99.90
52675;DHT22;38569;52.722;6.440;2022-09-09T03:34:48;14.50;99.90
52675;DHT22;38569;52.722;6.440;2022-09-09T03:37:16;14.50;99.90
52675;DHT22;38569;52.722;6.440;2022-09-09T03:39:43;14.40;99.90
52675;DHT22;38569;52.722;6.440;2022-09-09T03:42:09;14.50;99.90
52675;DHT22;38569;52.722;6.440;2022-09-09T03:44:37;14.50;99.90
52675;DHT22;38569;52.722;6.440;2022-09-09T03:47:03;14.50;99.90
52675;DHT22;38569;52.722;6.440;2022-09-09T03:49:29;14.50;99.90
52675;DHT22;38569;52.722;6.440;2022-09-09T03:51:57;14.40;99.90
52675;DHT22;38569;52.722;6.440;2022-09-09T03:54:24;14.50;99.90
52675;DHT22;38569;52.722;6.440;2022-09-09T03:56:50;14.50;99.90
52675;DHT22;38569;52.722;6.440;2022-09-09T03:59:16;14.50;99.90
52675;DHT22;38569;52.722;6.440;2022-09-09T04:01:41;14.50;99.90
52675;DHT22;38569;52.722;6.440;2022-09-09T04:04:08;14.50;99.90
52675;DHT22;38569;52.722;6.440;2022-09-09T04:06:34;14.30;99.90
52675;DHT22;38569;52.722;6.440;2022-09-09T04:09:00;14.40;99.90
52675;DHT22;38569;52.722;6.440;2022-09-09T04:11:29;14.40;99.90
52675;DHT22;38569;52.722;6.440;2022-09-09T04:13:54;14.40;99.90
52675;DHT22;38569;52.722;6.440;2022-09-09T04:16:20;14.30;99.90
52675;DHT22;38569;52.722;6.440;2022-09-09T04:18:46;14.30;99.90
52675;DHT22;38569;52.722;6.440;2022-09-09T04:21:12;14.30;99.90
52675;DHT22;38569;52.722;6.440;2022-09-09T04:23:38;14.20;99.90
52675;DHT22;38569;52.722;6.440;2022-09-09T04:26:05;14.20;99.90
52675;DHT22;38569;52.722;6.440;2022-09-09T04:28:33;14.30;99.90
52675;DHT22;38569;52.722;6.440;2022-09-09T04:31:07;14.30;99.90
52675;DHT22;38569;52.722;6.440;2022-09-09T04:33:34;14.10;99.90
52675;DHT22;38569;52.722;6.440;2022-09-09T04:36:00;14.20;99.90
52675;DHT22;38569;52.722;6.440;2022-09-09T04:38:26;14.10;99.90
52675;DHT22;38569;52.722;6.440;2022-09-09T04:40:52;14.10;99.90
52675;DHT22;38569;52.722;6.440;2022-09-09T04:43:19;14.10;99.90
52675;DHT22;38569;52.722;6.440;2022-09-09T04:45:50;14.00;99.90
52675;DHT22;38569;52.722;6.440;2022-09-09T04:48:16;14.00;99.90
52675;DHT22;38569;52.722;6.440;2022-09-09T04:50:42;14.00;99.90
52675;DHT22;38569;52.722;6.440;2022-09-09T04:53:08;14.00;99.90
52675;DHT22;38569;52.722;6.440;2022-09-09T04:55:34;14.00;99.90
52675;DHT22;38569;52.722;6.440;2022-09-09T04:58:07;14.00;99.90
52675;DHT22;38569;52.722;6.440;2022-09-09T05:00:34;13.90;99.90
52675;DHT22;38569;52.722;6.440;2022-09-09T05:03:04;13.90;99.90
52675;DHT22;38569;52.722;6.440;2022-09-09T05:05:30;13.90;99.90
52675;DHT22;38569;52.722;6.440;2022-09-09T05:08:04;13.90;99.90
52675;DHT22;38569;52.722;6.440;2022-09-09T05:10:32;13.80;99.90
52675;DHT22;38569;52.722;6.440;2022-09-09T05:12:58;13.90;99.90
52675;DHT22;38569;52.722;6.440;2022-09-09T05:15:23;13.80;99.90
52675;DHT22;38569;52.722;6.440;2022-09-09T05:17:49;13.80;99.90
52675;DHT22;38569;52.722;6.440;2022-09-09T05:20:18;13.60;99.90
52675;DHT22;38569;52.722;6.440;2022-09-09T05:22:44;13.70;99.90
52675;DHT22;38569;52.722;6.440;2022-09-09T05:25:09;13.70;99.90
52675;DHT22;38569;52.722;6.440;2022-09-09T05:27:35;13.60;99.90
52675;DHT22;38569;52.722;6.440;2022-09-09T05:30:01;13.70;99.90
52675;DHT22;38569;52.722;6.440;2022-09-09T05:32:26;13.70;99.90
52675;DHT22;38569;52.722;6.440;2022-09-09T05:34:53;13.80;99.90
52675;DHT22;38569;52.722;6.440;2022-09-09T05:37:19;13.90;99.90
52675;DHT22;38569;52.722;6.440;2022-09-09T05:39:44;14.00;99.90
52675;DHT22;38569;52.722;6.440;2022-09-09T05:42:10;14.10;99.90
52675;DHT22;38569;52.722;6.440;2022-09-09T05:44:36;14.00;99.90
52675;DHT22;38569;52.722;6.440;2022-09-09T05:47:02;14.00;99.90
52675;DHT22;38569;52.722;6.440;2022-09-09T05:49:28;14.10;99.90
52675;DHT22;38569;52.722;6.440;2022-09-09T05:51:54;14.20;99.90
52675;DHT22;38569;52.722;6.440;2022-09-09T05:54:20;14.10;99.90
52675;DHT22;38569;52.722;6.440;2022-09-09T05:56:45;14.10;99.90
52675;DHT22;38569;52.722;6.440;2022-09-09T05:59:11;14.10;99.90
52675;DHT22;38569;52.722;6.440;2022-09-09T06:01:38;14.10;99.90
52675;DHT22;38569;52.722;6.440;2022-09-09T06:04:07;14.30;99.90
52675;DHT22;38569;52.722;6.440;2022-09-09T06:06:35;14.30;99.90
52675;DHT22;38569;52.722;6.440;2022-09-09T06:09:03;14.40;99.90
52675;DHT22;38569;52.722;6.440;2022-09-09T06:11:32;14.50;99.90
52675;DHT22;38569;52.722;6.440;2022-09-09T06:13:59;14.50;99.90
52675;DHT22;38569;52.722;6.440;2022-09-09T06:16:27;14.50;99.90
52675;DHT22;38569;52.722;6.440;2022-09-09T06:18:54;14.50;99.90
52675;DHT22;38569;52.722;6.440;2022-09-09T06:21:26;14.70;99.90
52675;DHT22;38569;52.722;6.440;2022-09-09T06:23:53;14.70;99.90
52675;DHT22;38569;52.722;6.440;2022-09-09T06:26:21;14.70;99.90
52675;DHT22;38569;52.722;6.440;2022-09-09T06:28:49;14.80;99.90
52675;DHT22;38569;52.722;6.440;2022-09-09T06:31:17;14.70;99.90
52675;DHT22;38569;52.722;6.440;2022-09-09T06:33:47;14.60;99.90
52675;DHT22;38569;52.722;6.440;2022-09-09T06:36:21;14.60;99.90
52675;DHT22;38569;52.722;6.440;2022-09-09T06:38:47;14.60;99.90
52675;DHT22;38569;52.722;6.440;2022-09-09T06:41:16;14.70;99.90
52675;DHT22;38569;52.722;6.440;2022-09-09T06:43:42;14.80;99.90
52675;DHT22;38569;52.722;6.440;2022-09-09T06:46:11;14.80;99.90
52675;DHT22;38569;52.722;6.440;2022-09-09T06:48:39;14.80;99.90
52675;DHT22;38569;52.722;6.440;2022-09-09T06:51:15;14.90;99.90
52675;DHT22;38569;52.722;6.440;2022-09-09T06:53:43;14.80;99.90
52675;DHT22;38569;52.722;6.440;2022-09-09T06:58:45;15.00;99.90
52675;DHT22;38569;52.722;6.440;2022-09-09T07:01:13;15.10;99.90
52675;DHT22;38569;52.722;6.440;2022-09-09T07:03:39;15.30;99.90
52675;DHT22;38569;52.722;6.440;2022-09-09T07:06:06;15.30;99.90
52675;DHT22;38569;52.722;6.440;2022-09-09T07:08:33;15.40;99.90
52675;DHT22;38569;52.722;6.440;2022-09-09T07:11:03;15.40;99.90
52675;DHT22;38569;52.722;6.440;2022-09-09T07:13:33;15.60;99.90
52675;DHT22;38569;52.722;6.440;2022-09-09T07:16:12;15.60;99.90
52675;DHT22;38569;52.722;6.440;2022-09-09T07:18:39;15.70;99.90
52675;DHT22;38569;52.722;6.440;2022-09-09T07:21:05;15.60;99.90
52675;DHT22;38569;52.722;6.440;2022-09-09T07:23:32;15.60;99.90
52675;DHT22;38569;52.722;6.440;2022-09-09T07:25:58;15.90;99.90
52675;DHT22;38569;52.722;6.440;2022-09-09T07:28:25;16.00;99.90
52675;DHT22;38569;52.722;6.440;2022-09-09T07:30:55;16.20;99.90
52675;DHT22;38569;52.722;6.440;2022-09-09T07:33:21;16.00;99.90
52675;DHT22;38569;52.722;6.440;2022-09-09T07:35:47;16.10;99.90
52675;DHT22;38569;52.722;6.440;2022-09-09T07:38:13;16.00;99.90
52675;DHT22;38569;52.722;6.440;2022-09-09T07:40:40;16.10;99.90
52675;DHT22;38569;52.722;6.440;2022-09-09T07:43:05;16.20;99.90
52675;DHT22;38569;52.722;6.440;2022-09-09T07:45:33;16.30;99.90
52675;DHT22;38569;52.722;6.440;2022-09-09T07:47:59;16.40;99.90
52675;DHT22;38569;52.722;6.440;2022-09-09T07:50:25;16.30;99.90
52675;DHT22;38569;52.722;6.440;2022-09-09T07:52:52;16.40;99.90
52675;DHT22;38569;52.722;6.440;2022-09-09T07:55:22;16.40;99.90
52675;DHT22;38569;52.722;6.440;2022-09-09T07:57:53;16.30;99.90
52675;DHT22;38569;52.722;6.440;2022-09-09T08:00:19;16.30;99.90
52675;DHT22;38569;52.722;6.440;2022-09-09T08:02:47;16.30;99.90
52675;DHT22;38569;52.722;6.440;2022-09-09T08:05:13;16.50;99.90
52675;DHT22;38569;52.722;6.440;2022-09-09T08:07:38;16.60;99.90
52675;DHT22;38569;52.722;6.440;2022-09-09T08:10:04;16.70;99.90
52675;DHT22;38569;52.722;6.440;2022-09-09T08:12:31;16.70;99.90
52675;DHT22;38569;52.722;6.440;2022-09-09T08:14:57;16.80;99.90
52675;DHT22;38569;52.722;6.440;2022-09-09T08:17:24;17.00;99.90
52675;DHT22;38569;52.722;6.440;2022-09-09T08:19:50;17.20;99.90
52675;DHT22;38569;52.722;6.440;2022-09-09T08:22:15;17.50;99.90
52675;DHT22;38569;52.722;6.440;2022-09-09T08:24:41;17.70;99.90
52675;DHT22;38569;52.722;6.440;2022-09-09T08:27:07;17.90;99.90
52675;DHT22;38569;52.722;6.440;2022-09-09T08:29:35;18.10;99.90
52675;DHT22;38569;52.722;6.440;2022-09-09T08:32:01;18.00;99.90
52675;DHT22;38569;52.722;6.440;2022-09-09T08:34:27;17.80;99.90
52675;DHT22;38569;52.722;6.440;2022-09-09T08:36:54;17.80;99.90
52675;DHT22;38569;52.722;6.440;2022-09-09T08:39:21;17.80;99.90
52675;DHT22;38569;52.722;6.440;2022-09-09T08:50:19;18.10;99.90
52675;DHT22;38569;52.722;6.440;2022-09-09T08:53:12;18.20;99.90
52675;DHT22;38569;52.722;6.440;2022-09-09T08:58:25;17.90;99.90
52675;DHT22;38569;52.722;6.440;2022-09-09T09:11:42;18.60;99.90
52675;DHT22;38569;52.722;6.440;2022-09-09T09:14:22;18.70;99.90
52675;DHT22;38569;52.722;6.440;2022-09-09T09:19:15;18.50;99.90
52675;DHT22;38569;52.722;6.440;2022-09-09T09:24:20;18.60;99.90
52675;DHT22;38569;52.722;6.440;2022-09-09T09:26:47;18.60;99.90
52675;DHT22;38569;52.722;6.440;2022-09-09T09:29:18;18.70;99.90
52675;DHT22;38569;52.722;6.440;2022-09-09T09:31:52;18.60;99.90
52675;DHT22;38569;52.722;6.440;2022-09-09T09:34:20;18.60;99.90
52675;DHT22;38569;52.722;6.440;2022-09-09T09:37:12;18.70;99.90
52675;DHT22;38569;52.722;6.440;2022-09-09T09:39:42;18.60;99.90
52675;DHT22;38569;52.722;6.440;2022-09-09T09:42:16;18.60;99.90
52675;DHT22;38569;52.722;6.440;2022-09-09T09:44:43;18.60;99.90
52675;DHT22;38569;52.722;6.440;2022-09-09T09:47:13;18.60;99.90
52675;DHT22;38569;52.722;6.440;2022-09-09T09:49:57;18.50;99.90
52675;DHT22;38569;52.722;6.440;2022-09-09T09:52:32;18.50;99.90
52675;DHT22;38569;52.722;6.440;2022-09-09T09:55:03;18.70;99.90
52675;DHT22;38569;52.722;6.440;2022-09-09T09:57:31;18.80;99.90
52675;DHT22;38569;52.722;6.440;2022-09-09T10:00:22;19.00;99.90
52675;DHT22;38569;52.722;6.440;2022-09-09T10:02:48;19.30;99.90
52675;DHT22;38569;52.722;6.440;2022-09-09T10:05:17;19.50;99.90
52675;DHT22;38569;52.722;6.440;2022-09-09T10:07:44;19.50;99.90
52675;DHT22;38569;52.722;6.440;2022-09-09T10:10:53;19.50;99.90
52675;DHT22;38569;52.722;6.440;2022-09-09T10:16:23;19.90;99.90
52675;DHT22;38569;52.722;6.440;2022-09-09T10:19:13;20.30;99.90
52675;DHT22;38569;52.722;6.440;2022-09-09T10:27:23;20.20;99.90
52675;DHT22;38569;52.722;6.440;2022-09-09T10:33:08;19.90;99.90
52675;DHT22;38569;52.722;6.440;2022-09-09T10:38:24;19.70;99.90
52675;DHT22;38569;52.722;6.440;2022-09-09T10:57:05;19.40;99.90
52675;DHT22;38569;52.722;6.440;2022-09-09T10:59:37;19.50;99.90
52675;DHT22;38569;52.722;6.440;2022-09-09T11:02:26;19.50;99.90
52675;DHT22;38569;52.722;6.440;2022-09-09T11:08:01;19.60;99.90
52675;DHT22;38569;52.722;6.440;2022-09-09T11:10:46;19.60;99.90
52675;DHT22;38569;52.722;6.440;2022-09-09T11:13:28;19.70;99.90
52675;DHT22;38569;52.722;6.440;2022-09-09T11:16:17;19.70;99.90
52675;DHT22;38569;52.722;6.440;2022-09-09T11:18:46;19.60;99.90
52675;DHT22;38569;52.722;6.440;2022-09-09T11:21:28;19.40;99.90
52675;DHT22;38569;52.722;6.440;2022-09-09T11:24:06;19.30;99.90
52675;DHT22;38569;52.722;6.440;2022-09-09T11:26:47;19.10;99.90
52675;DHT22;38569;52.722;6.440;2022-09-09T11:29:52;19.10;99.90
52675;DHT22;38569;52.722;6.440;2022-09-09T11:35:26;19.50;99.90
52675;DHT22;38569;52.722;6.440;2022-09-09T11:40:31;20.30;99.90
52675;DHT22;38569;52.722;6.440;2022-09-09T11:43:12;20.70;99.90
52675;DHT22;38569;52.722;6.440;2022-09-09T11:45:43;21.00;99.90
52675;DHT22;38569;52.722;6.440;2022-09-09T11:48:42;21.10;99.90
52675;DHT22;38569;52.722;6.440;2022-09-09T11:53:50;22.50;99.90
52675;DHT22;38569;52.722;6.440;2022-09-09T11:56:45;22.50;99.90
52675;DHT22;38569;52.722;6.440;2022-09-09T12:01:56;21.90;99.90
52675;DHT22;38569;52.722;6.440;2022-09-09T12:09:52;21.00;99.90
52675;DHT22;38569;52.722;6.440;2022-09-09T12:12:23;20.90;99.90
52675;DHT22;38569;52.722;6.440;2022-09-09T12:15:02;21.00;99.90
52675;DHT22;38569;52.722;6.440;2022-09-09T12:17:30;21.20;99.90
52675;DHT22;38569;52.722;6.440;2022-09-09T12:25:38;21.80;99.90
52675;DHT22;38569;52.722;6.440;2022-09-09T12:33:23;20.00;99.90
52675;DHT22;38569;52.722;6.440;2022-09-09T12:35:55;19.80;99.90
52675;DHT22;38569;52.722;6.440;2022-09-09T12:38:34;20.10;99.90
52675;DHT22;38569;52.722;6.440;2022-09-09T12:41:00;20.60;99.90
52675;DHT22;38569;52.722;6.440;2022-09-09T12:43:27;21.00;99.90
52675;DHT22;38569;52.722;6.440;2022-09-09T12:46:08;21.40;99.90
52675;DHT22;38569;52.722;6.440;2022-09-09T12:48:41;21.90;99.90
52675;DHT22;38569;52.722;6.440;2022-09-09T12:51:32;22.10;99.90
52675;DHT22;38569;52.722;6.440;2022-09-09T12:53:59;21.90;99.90
52675;DHT22;38569;52.722;6.440;2022-09-09T12:56:28;21.70;99.90
52675;DHT22;38569;52.722;6.440;2022-09-09T12:58:56;21.50;99.90
52675;DHT22;38569;52.722;6.440;2022-09-09T13:01:33;21.50;99.90
52675;DHT22;38569;52.722;6.440;2022-09-09T13:03:59;21.60;99.90
52675;DHT22;38569;52.722;6.440;2022-09-09T13:06:29;21.80;99.90
52675;DHT22;38569;52.722;6.440;2022-09-09T13:08:58;22.20;99.90
52675;DHT22;38569;52.722;6.440;2022-09-09T13:11:42;22.20;99.90
52675;DHT22;38569;52.722;6.440;2022-09-09T13:16:58;22.30;99.90
52675;DHT22;38569;52.722;6.440;2022-09-09T13:19:24;22.00;99.90
52675;DHT22;38569;52.722;6.440;2022-09-09T13:21:54;21.70;99.90
52675;DHT22;38569;52.722;6.440;2022-09-09T13:24:34;21.30;99.90
52675;DHT22;38569;52.722;6.440;2022-09-09T13:27:05;20.30;99.90
52675;DHT22;38569;52.722;6.440;2022-09-09T13:29:52;19.30;99.90
52675;DHT22;38569;52.722;6.440;2022-09-09T13:32:23;18.90;99.90
52675;DHT22;38569;52.722;6.440;2022-09-09T13:34:57;18.80;99.90
52675;DHT22;38569;52.722;6.440;2022-09-09T13:37:26;19.10;99.90
52675;DHT22;38569;52.722;6.440;2022-09-09T13:39:53;19.40;99.90
52675;DHT22;38569;52.722;6.440;2022-09-09T13:42:28;19.50;99.90
52675;DHT22;38569;52.722;6.440;2022-09-09T13:44:55;19.50;99.90
52675;DHT22;38569;52.722;6.440;2022-09-09T13:47:37;19.40;99.90
52675;DHT22;38569;52.722;6.440;2022-09-09T13:50:22;19.50;99.90
52675;DHT22;38569;52.722;6.440;2022-09-09T13:52:50;20.10;99.90
52675;DHT22;38569;52.722;6.440;2022-09-09T13:55:17;20.40;99.90
52675;DHT22;38569;52.722;6.440;2022-09-09T13:58:14;20.70;99.90
52675;DHT22;38569;52.722;6.440;2022-09-09T14:00:41;21.10;99.90
52675;DHT22;38569;52.722;6.440;2022-09-09T14:03:06;21.50;99.90
52675;DHT22;38569;52.722;6.440;2022-09-09T14:05:33;21.80;99.90
52675;DHT22;38569;52.722;6.440;2022-09-09T14:08:00;22.00;99.90
52675;DHT22;38569;52.722;6.440;2022-09-09T14:10:28;22.00;99.90
52675;DHT22;38569;52.722;6.440;2022-09-09T14:12:54;21.90;99.90
52675;DHT22;38569;52.722;6.440;2022-09-09T14:15:20;21.80;99.90
52675;DHT22;38569;52.722;6.440;2022-09-09T14:17:47;21.80;99.90
52675;DHT22;38569;52.722;6.440;2022-09-09T14:20:15;22.10;99.90
52675;DHT22;38569;52.722;6.440;2022-09-09T14:22:42;22.20;99.90
52675;DHT22;38569;52.722;6.440;2022-09-09T14:25:09;22.30;99.90
52675;DHT22;38569;52.722;6.440;2022-09-09T14:27:35;22.20;99.90
52675;DHT22;38569;52.722;6.440;2022-09-09T14:30:02;22.30;99.90
52675;DHT22;38569;52.722;6.440;2022-09-09T14:32:28;22.40;99.90
52675;DHT22;38569;52.722;6.440;2022-09-09T14:34:54;22.40;99.90
52675;DHT22;38569;52.722;6.440;2022-09-09T14:37:20;22.30;99.90
52675;DHT22;38569;52.722;6.440;2022-09-09T14:39:46;22.30;99.90
52675;DHT22;38569;52.722;6.440;2022-09-09T14:42:14;22.30;99.90
52675;DHT22;38569;52.722;6.440;2022-09-09T14:44:39;22.10;99.90
52675;DHT22;38569;52.722;6.440;2022-09-09T14:47:06;21.90;99.90
52675;DHT22;38569;52.722;6.440;2022-09-09T14:49:36;21.90;99.90
52675;DHT22;38569;52.722;6.440;2022-09-09T14:52:03;21.70;99.90
52675;DHT22;38569;52.722;6.440;2022-09-09T14:54:30;21.40;99.90
52675;DHT22;38569;52.722;6.440;2022-09-09T14:56:56;21.20;99.90
52675;DHT22;38569;52.722;6.440;2022-09-09T14:59:23;21.00;99.90
52675;DHT22;38569;52.722;6.440;2022-09-09T15:01:48;20.90;99.90
52675;DHT22;38569;52.722;6.440;2022-09-09T15:04:14;21.00;99.90
52675;DHT22;38569;52.722;6.440;2022-09-09T15:06:42;21.20;99.90
52675;DHT22;38569;52.722;6.440;2022-09-09T15:09:10;21.30;99.90
52675;DHT22;38569;52.722;6.440;2022-09-09T15:11:37;21.20;99.90
52675;DHT22;38569;52.722;6.440;2022-09-09T15:14:08;21.10;99.90
52675;DHT22;38569;52.722;6.440;2022-09-09T15:16:34;20.90;99.90
52675;DHT22;38569;52.722;6.440;2022-09-09T15:19:01;20.70;99.90
52675;DHT22;38569;52.722;6.440;2022-09-09T15:21:29;20.50;99.90
52675;DHT22;38569;52.722;6.440;2022-09-09T15:23:55;20.30;99.90
52675;DHT22;38569;52.722;6.440;2022-09-09T15:26:21;19.90;99.90
52675;DHT22;38569;52.722;6.440;2022-09-09T15:28:47;19.40;99.90
52675;DHT22;38569;52.722;6.440;2022-09-09T15:31:25;19.20;99.90
52675;DHT22;38569;52.722;6.440;2022-09-09T15:33:56;19.00;99.90
52675;DHT22;38569;52.722;6.440;2022-09-09T15:36:33;18.90;99.90
52675;DHT22;38569;52.722;6.440;2022-09-09T15:39:00;18.90;99.90
52675;DHT22;38569;52.722;6.440;2022-09-09T15:41:26;18.70;99.90
52675;DHT22;38569;52.722;6.440;2022-09-09T15:43:55;18.40;99.90
52675;DHT22;38569;52.722;6.440;2022-09-09T15:46:35;18.40;99.90
52675;DHT22;38569;52.722;6.440;2022-09-09T15:49:07;18.40;99.90
52675;DHT22;38569;52.722;6.440;2022-09-09T15:51:35;18.40;99.90
52675;DHT22;38569;52.722;6.440;2022-09-09T15:54:03;18.50;99.90
52675;DHT22;38569;52.722;6.440;2022-09-09T15:56:30;18.50;99.90
52675;DHT22;38569;52.722;6.440;2022-09-09T15:58:57;18.50;99.90
52675;DHT22;38569;52.722;6.440;2022-09-09T16:01:23;18.60;99.90
52675;DHT22;38569;52.722;6.440;2022-09-09T16:03:49;18.70;99.90
52675;DHT22;38569;52.722;6.440;2022-09-09T16:06:20;18.80;99.90
52675;DHT22;38569;52.722;6.440;2022-09-09T16:08:48;19.00;99.90
52675;DHT22;38569;52.722;6.440;2022-09-09T16:11:20;19.00;99.90
52675;DHT22;38569;52.722;6.440;2022-09-09T16:13:49;19.00;99.90
52675;DHT22;38569;52.722;6.440;2022-09-09T16:16:16;19.00;99.90
52675;DHT22;38569;52.722;6.440;2022-09-09T16:18:47;19.00;99.90
52675;DHT22;38569;52.722;6.440;2022-09-09T16:21:23;19.00;99.90
52675;DHT22;38569;52.722;6.440;2022-09-09T16:23:52;18.90;99.90
52675;DHT22;38569;52.722;6.440;2022-09-09T16:26:21;18.80;99.90
52675;DHT22;38569;52.722;6.440;2022-09-09T16:28:47;18.70;99.90
52675;DHT22;38569;52.722;6.440;2022-09-09T16:31:15;18.70;99.90
52675;DHT22;38569;52.722;6.440;2022-09-09T16:33:43;18.70;99.90
52675;DHT22;38569;52.722;6.440;2022-09-09T16:36:11;18.60;99.90
52675;DHT22;38569;52.722;6.440;2022-09-09T16:38:38;18.60;99.90
52675;DHT22;38569;52.722;6.440;2022-09-09T16:41:05;18.70;99.90
52675;DHT22;38569;52.722;6.440;2022-09-09T16:43:35;18.70;99.90
52675;DHT22;38569;52.722;6.440;2022-09-09T16:46:14;18.70;99.90
52675;DHT22;38569;52.722;6.440;2022-09-09T16:48:42;18.70;99.90
52675;DHT22;38569;52.722;6.440;2022-09-09T16:51:30;18.60;99.90
52675;DHT22;38569;52.722;6.440;2022-09-09T16:53:59;18.60;99.90
52675;DHT22;38569;52.722;6.440;2022-09-09T16:56:27;18.50;99.90
52675;DHT22;38569;52.722;6.440;2022-09-09T16:58:56;18.50;99.90
52675;DHT22;38569;52.722;6.440;2022-09-09T17:01:23;18.50;99.90
52675;DHT22;38569;52.722;6.440;2022-09-09T17:03:53;18.40;99.90
52675;DHT22;38569;52.722;6.440;2022-09-09T17:06:19;18.30;99.90
52675;DHT22;38569;52.722;6.440;2022-09-09T17:08:45;18.30;99.90
52675;DHT22;38569;52.722;6.440;2022-09-09T17:11:15;18.20;99.90
52675;DHT22;38569;52.722;6.440;2022-09-09T17:13:42;18.20;99.90
52675;DHT22;38569;52.722;6.440;2022-09-09T17:16:09;18.20;99.90
52675;DHT22;38569;52.722;6.440;2022-09-09T17:18:36;18.10;99.90
52675;DHT22;38569;52.722;6.440;2022-09-09T17:21:06;18.10;99.90
52675;DHT22;38569;52.722;6.440;2022-09-09T17:23:34;18.10;99.90
52675;DHT22;38569;52.722;6.440;2022-09-09T17:26:04;18.10;99.90
52675;DHT22;38569;52.722;6.440;2022-09-09T17:28:31;18.10;99.90
52675;DHT22;38569;52.722;6.440;2022-09-09T17:31:00;18.10;99.90
52675;DHT22;38569;52.722;6.440;2022-09-09T17:33:28;18.10;99.90
52675;DHT22;38569;52.722;6.440;2022-09-09T17:36:00;18.10;99.90
52675;DHT22;38569;52.722;6.440;2022-09-09T17:38:28;18.10;99.90
52675;DHT22;38569;52.722;6.440;2022-09-09T17:41:18;18.10;99.90
52675;DHT22;38569;52.722;6.440;2022-09-09T17:43:45;18.10;99.90
52675;DHT22;38569;52.722;6.440;2022-09-09T17:46:12;18.00;99.90
52675;DHT22;38569;52.722;6.440;2022-09-09T17:48:39;18.00;99.90
52675;DHT22;38569;52.722;6.440;2022-09-09T17:51:07;18.00;99.90
52675;DHT22;38569;52.722;6.440;2022-09-09T17:53:43;18.00;99.90
52675;DHT22;38569;52.722;6.440;2022-09-09T17:56:11;18.00;99.90
52675;DHT22;38569;52.722;6.440;2022-09-09T17:58:37;17.90;99.90
52675;DHT22;38569;52.722;6.440;2022-09-09T18:01:12;17.80;99.90